< < Back
Terminal Aerodrome Forecast


Current Version              Previous Versions:   1  2  3  4  5  6  7  8  9  

Terminal Aerodrome Forecast

555
FTUS42 KTAE 240520
TAFDHN
TAF
KDHN 240520Z 2406/2506 00000KT P6SM FEW250
     FM241500 15006KT P6SM SKC=

Latest METAR

437
SAUS70 KWBC 250700 RRJ
MTRDHN
METAR KDHN 250653Z AUTO 00000KT 10SM CLR 19/15 A3018 RMK AO2 SLP214
T01890150


USA.gov is the U.S. government's official web portal to all federal, state and local government web resources and services.